Terminal Aerodrome Forecast
Issued by NWS

Home | Current Version | Previous Version | Text Only | Print | Product List | Glossary On
Versions: 1 2 3 4 5 6 7 8 9 10 11 12 13 14 15 16 17 18 19 20 21 22 23
000
FTUS43 KGRR 161740
TAFBTL
TAF
KBTL 161740Z 1618/1718 21005KT P6SM OVC080
     FM171200 10005KT 2SM HZ BR OVC007
     FM171600 14006KT 4SM BR OVC010=

USA.gov is the U.S. government's official web portal to all federal, state and local government web resources and services.